createdAt,value
2018-07-06T00:00:07.038Z,99388.00
2018-07-06T00:01:53.865Z,99389.34
2018-07-06T00:03:40.657Z,99396.67
2018-07-06T00:05:27.480Z,99390.20
2018-07-06T00:07:14.237Z,99392.34
2018-07-06T00:09:00.948Z,99398.52
2018-07-06T00:10:47.777Z,99401.02
2018-07-06T00:12:34.909Z,99401.51
2018-07-06T00:14:21.760Z,99401.17
2018-07-06T00:16:08.624Z,99402.66
2018-07-06T00:17:55.557Z,99414.17
2018-07-06T00:19:42.501Z,99410.16
2018-07-06T00:21:29.560Z,99406.66
2018-07-06T00:23:16.601Z,99410.50
2018-07-06T00:25:03.307Z,99403.52
2018-07-06T00:26:50.170Z,99402.84
2018-07-06T00:28:36.901Z,99405.84
2018-07-06T00:30:24.492Z,99410.83
2018-07-06T00:32:11.560Z,99413.66
2018-07-06T00:33:58.336Z,99413.17
2018-07-06T00:35:45.096Z,99420.31
2018-07-06T00:37:31.717Z,99419.33
2018-07-06T00:39:18.433Z,99417.14
2018-07-06T00:41:05.348Z,99415.31
2018-07-06T00:42:52.036Z,99410.34
2018-07-06T00:44:38.819Z,99413.84
2018-07-06T00:46:25.494Z,99412.50
2018-07-06T00:48:12.562Z,99418.48
2018-07-06T00:49:59.805Z,99423.47
2018-07-06T00:51:46.517Z,99427.14
2018-07-06T00:53:33.305Z,99426.48
2018-07-06T00:55:20.203Z,99429.63
2018-07-06T00:57:07.339Z,99433.31
2018-07-06T00:58:54.228Z,99432.47
2018-07-06T01:00:41.106Z,99429.32
2018-07-06T01:02:28.148Z,99424.47
2018-07-06T01:04:15.009Z,99430.47
2018-07-06T01:06:01.761Z,99430.46
2018-07-06T01:07:48.731Z,99438.13
2018-07-06T01:09:35.512Z,99433.80
2018-07-06T01:11:22.570Z,99432.47
2018-07-06T01:13:09.789Z,99431.63
2018-07-06T01:14:56.616Z,99432.48
2018-07-06T01:16:43.446Z,99436.97
2018-07-06T01:18:30.288Z,99437.45
2018-07-06T01:20:17.102Z,99445.45
2018-07-06T01:22:03.801Z,99442.95
2018-07-06T01:23:50.579Z,99444.80
2018-07-06T01:25:37.268Z,99437.64
2018-07-06T01:27:23.942Z,99447.61
2018-07-06T01:29:10.653Z,99440.11
2018-07-06T01:30:57.340Z,99443.28
2018-07-06T01:32:44.090Z,99439.13
2018-07-06T01:34:30.828Z,99437.41
2018-07-06T01:36:17.764Z,99438.59
2018-07-06T01:38:04.816Z,99435.59
2018-07-06T01:39:51.583Z,99440.27
2018-07-06T01:41:38.296Z,99441.21
2018-07-06T01:43:25.087Z,99447.23
2018-07-06T01:45:11.819Z,99450.38
2018-07-06T01:46:58.712Z,99454.86
2018-07-06T01:48:45.421Z,99450.25
2018-07-06T01:50:32.244Z,99455.75
2018-07-06T01:52:19.103Z,99459.37
2018-07-06T01:54:05.886Z,99460.39
2018-07-06T01:55:52.724Z,99462.03
2018-07-06T01:57:39.940Z,99462.84
2018-07-06T01:59:26.862Z,99466.52
2018-07-06T02:01:13.574Z,99467.33
2018-07-06T02:03:00.316Z,99464.50
2018-07-06T02:04:47.085Z,99466.49
2018-07-06T02:06:33.962Z,99466.64
2018-07-06T02:08:20.631Z,99470.98
2018-07-06T02:10:07.339Z,99470.14
2018-07-06T02:11:54.171Z,99463.10
2018-07-06T02:13:41.160Z,99467.23
2018-07-06T02:15:28.159Z,99470.21
2018-07-06T02:17:18.564Z,99469.05
2018-07-06T02:19:05.281Z,99474.02
2018-07-06T02:20:52.058Z,99477.66
2018-07-06T02:22:39.361Z,99480.85
2018-07-06T02:24:26.100Z,99477.17
2018-07-06T02:26:12.829Z,99477.48
2018-07-06T02:27:59.478Z,99477.31
2018-07-06T02:29:46.407Z,99480.31
2018-07-06T02:31:33.191Z,99473.84
2018-07-06T02:33:20.066Z,99483.16
2018-07-06T02:35:06.912Z,99481.66
2018-07-06T02:36:53.734Z,99481.83
2018-07-06T02:38:40.464Z,99485.99
2018-07-06T02:40:27.651Z,99490.47
2018-07-06T02:42:14.536Z,99496.81
2018-07-06T02:44:01.631Z,99493.97
2018-07-06T02:45:48.435Z,99494.98
2018-07-06T02:47:35.272Z,99490.16
2018-07-06T02:49:22.152Z,99494.15
2018-07-06T02:51:09.049Z,99498.48
2018-07-06T02:52:55.780Z,99493.13
2018-07-06T02:54:42.745Z,99503.11
2018-07-06T02:56:29.550Z,99501.77
2018-07-06T02:58:16.210Z,99498.77
2018-07-06T03:00:02.976Z,99504.42
2018-07-06T03:01:49.955Z,99502.93
2018-07-06T03:03:36.824Z,99509.94
2018-07-06T03:05:23.738Z,99508.29
2018-07-06T03:07:10.601Z,99505.95
2018-07-06T03:08:57.584Z,99507.80
2018-07-06T03:10:44.471Z,99509.80
2018-07-06T03:12:31.211Z,99508.82
2018-07-06T03:14:18.316Z,99511.80
2018-07-06T03:16:05.225Z,99505.50
2018-07-06T03:17:52.444Z,99516.23
2018-07-06T03:19:39.650Z,99516.45
2018-07-06T03:21:26.467Z,99519.78
2018-07-06T03:23:13.344Z,99522.61
2018-07-06T03:25:00.015Z,99528.42
2018-07-06T03:26:46.781Z,99527.41
2018-07-06T03:28:34.456Z,99532.06
2018-07-06T03:30:21.005Z,99535.91
2018-07-06T03:32:07.776Z,99537.73
2018-07-06T03:33:54.589Z,99540.08
2018-07-06T03:35:41.260Z,99542.52
2018-07-06T03:37:28.129Z,99539.72
2018-07-06T03:39:15.027Z,99542.20
2018-07-06T03:41:01.882Z,99546.02
2018-07-06T03:42:48.716Z,99550.32
2018-07-06T03:44:35.591Z,99550.63
2018-07-06T03:46:22.280Z,99550.63
2018-07-06T03:48:09.081Z,99554.66
2018-07-06T03:49:55.822Z,99552.84
2018-07-06T03:51:42.615Z,99558.97
2018-07-06T03:53:29.243Z,99564.66
2018-07-06T03:55:20.673Z,99565.31
2018-07-06T03:57:07.546Z,99562.16
2018-07-06T03:58:54.608Z,99557.08
2018-07-06T04:00:41.456Z,99563.43
2018-07-06T04:02:28.152Z,99563.25
2018-07-06T04:04:14.856Z,99563.18
2018-07-06T04:06:01.906Z,99569.11
2018-07-06T04:07:48.758Z,99572.27
2018-07-06T04:09:35.607Z,99572.44
2018-07-06T04:11:22.629Z,99576.20
2018-07-06T04:13:09.380Z,99580.86
2018-07-06T04:14:56.056Z,99584.06
2018-07-06T04:16:43.374Z,99585.20
2018-07-06T04:18:30.208Z,99585.62
2018-07-06T04:20:17.090Z,99586.45
2018-07-06T04:22:03.909Z,99582.95
2018-07-06T04:23:50.760Z,99581.14
2018-07-06T04:25:37.535Z,99584.95
2018-07-06T04:27:24.396Z,99583.00
2018-07-06T04:29:11.203Z,99583.63
2018-07-06T04:30:58.060Z,99585.36
2018-07-06T04:32:44.844Z,99591.22
2018-07-06T04:34:31.995Z,99589.80
2018-07-06T04:36:19.036Z,99594.49
2018-07-06T04:38:05.927Z,99593.83
2018-07-06T04:39:52.818Z,99591.20
2018-07-06T04:41:39.699Z,99589.07
2018-07-06T04:43:26.592Z,99596.77
2018-07-06T04:45:13.272Z,99599.66
2018-07-06T04:46:59.953Z,99598.20
2018-07-06T04:48:46.819Z,99596.72
2018-07-06T04:50:33.631Z,99594.36
2018-07-06T04:52:20.374Z,99599.55
2018-07-06T04:54:07.144Z,99598.41
2018-07-06T04:55:54.322Z,99603.23
2018-07-06T04:57:41.259Z,99600.73
2018-07-06T04:59:28.052Z,99601.23
2018-07-06T05:01:15.162Z,99608.55
2018-07-06T05:03:02.076Z,99608.37
2018-07-06T05:04:49.020Z,99609.73
2018-07-06T05:06:35.825Z,99620.98
2018-07-06T05:08:23.700Z,99619.56
2018-07-06T05:10:10.886Z,99623.99
2018-07-06T05:11:57.735Z,99623.62
2018-07-06T05:13:44.690Z,99633.45
2018-07-06T05:15:31.380Z,99626.30
2018-07-06T05:17:18.285Z,99623.70
2018-07-06T05:19:05.152Z,99625.88
2018-07-06T05:20:51.790Z,99624.05
2018-07-06T05:22:38.693Z,99625.63
2018-07-06T05:24:25.516Z,99624.23
2018-07-06T05:26:12.342Z,99626.65
2018-07-06T05:27:59.172Z,99630.47
2018-07-06T05:29:46.624Z,99631.56
2018-07-06T05:31:33.509Z,99634.09
2018-07-06T05:33:21.173Z,99627.49
2018-07-06T05:35:07.981Z,99640.36
2018-07-06T05:36:54.786Z,99631.61
2018-07-06T05:38:41.514Z,99630.44
2018-07-06T05:40:28.208Z,99635.00
2018-07-06T05:42:15.090Z,99636.73
2018-07-06T05:44:01.803Z,99636.86
2018-07-06T05:45:48.609Z,99644.36
2018-07-06T05:47:35.435Z,99640.98
2018-07-06T05:49:22.516Z,99652.78
2018-07-06T05:51:09.368Z,99643.34
2018-07-06T05:52:57.328Z,99649.50
2018-07-06T05:54:44.376Z,99655.31
2018-07-06T05:56:31.061Z,99658.02
2018-07-06T05:58:17.892Z,99670.07
2018-07-06T06:00:04.722Z,99667.08
2018-07-06T06:01:51.554Z,99661.73
2018-07-06T06:03:38.581Z,99660.58
2018-07-06T06:05:25.368Z,99659.18
2018-07-06T06:07:12.150Z,99665.14
2018-07-06T06:08:46.712Z,99664.20
2018-07-06T06:10:22.275Z,99655.93
2018-07-06T06:11:57.940Z,99661.64
2018-07-06T06:13:33.644Z,99663.84
2018-07-06T06:15:09.465Z,99658.59
2018-07-06T06:16:45.042Z,99663.67
2018-07-06T06:18:20.776Z,99669.92
2018-07-06T06:19:56.369Z,99676.48
2018-07-06T06:21:31.957Z,99670.25
2018-07-06T06:23:07.608Z,99676.19
2018-07-06T06:24:43.149Z,99679.58
2018-07-06T06:26:24.609Z,99682.40
2018-07-06T06:28:00.160Z,99687.21
2018-07-06T06:29:35.849Z,99679.69
2018-07-06T06:31:11.428Z,99685.49
2018-07-06T06:32:46.953Z,99681.61
2018-07-06T06:34:22.707Z,99687.68
2018-07-06T06:35:58.273Z,99679.83
2018-07-06T06:37:33.832Z,99681.55
2018-07-06T06:39:09.401Z,99690.35
2018-07-06T06:40:44.950Z,99681.52
2018-07-06T06:42:20.526Z,99685.59
2018-07-06T06:43:56.143Z,99687.47
2018-07-06T06:45:31.689Z,99686.53
2018-07-06T06:47:07.311Z,99685.06
2018-07-06T06:48:42.997Z,99690.04
2018-07-06T06:50:18.617Z,99692.17
2018-07-06T06:51:54.439Z,99692.88
2018-07-06T06:53:29.996Z,99690.48
2018-07-06T06:55:05.544Z,99701.49
2018-07-06T06:56:41.290Z,99702.88
2018-07-06T06:58:16.927Z,99704.02
2018-07-06T06:59:52.493Z,99700.48
2018-07-06T07:01:28.081Z,99705.80
2018-07-06T07:03:03.956Z,99704.23
2018-07-06T07:04:39.789Z,99709.80
2018-07-06T07:06:15.357Z,99705.89
2018-07-06T07:07:50.971Z,99698.63
2018-07-06T07:09:26.439Z,99697.15
2018-07-06T07:11:02.025Z,99697.36
2018-07-06T07:12:37.586Z,99704.30
2018-07-06T07:14:13.270Z,99711.14
2018-07-06T07:15:48.782Z,99707.32
2018-07-06T07:17:24.874Z,99713.98
2018-07-06T07:19:00.460Z,99712.66
2018-07-06T07:20:36.054Z,99712.61
2018-07-06T07:22:11.642Z,99716.37
2018-07-06T07:23:47.212Z,99719.59
2018-07-06T07:27:28.167Z,99719.99
2018-07-06T07:29:03.728Z,99718.70
2018-07-06T07:30:39.365Z,99716.50
2018-07-06T07:32:14.995Z,99715.48
2018-07-06T07:33:50.773Z,99714.72
2018-07-06T07:35:26.384Z,99714.38
2018-07-06T07:37:02.096Z,99716.89
2018-07-06T07:38:37.662Z,99717.07
2018-07-06T07:40:13.357Z,99719.75
2018-07-06T07:41:48.957Z,99714.92
2018-07-06T07:43:24.549Z,99711.30
2018-07-06T07:45:00.147Z,99715.13
2018-07-06T07:46:35.882Z,99714.45
2018-07-06T07:48:11.454Z,99720.63
2018-07-06T07:49:47.295Z,99720.95
2018-07-06T07:52:01.327Z,99716.77
2018-07-06T07:53:48.065Z,99717.13
2018-07-06T07:55:23.619Z,99727.14
2018-07-06T07:57:00.113Z,99728.13
2018-07-06T07:58:35.696Z,99726.30
2018-07-06T08:00:11.576Z,99726.09
2018-07-06T08:01:47.127Z,99731.97
2018-07-06T08:03:22.732Z,99738.11
2018-07-06T08:04:58.303Z,99739.63
2018-07-06T08:06:33.898Z,99741.24
2018-07-06T08:08:09.451Z,99742.37
2018-07-06T08:09:45.093Z,99745.24
2018-07-06T08:11:20.702Z,99745.14
2018-07-06T08:12:56.273Z,99745.79
2018-07-06T08:14:31.882Z,99749.13
2018-07-06T08:16:07.815Z,99741.44
2018-07-06T08:17:43.633Z,99753.24
2018-07-06T08:19:19.428Z,99748.92
2018-07-06T08:20:54.993Z,99747.92
2018-07-06T08:22:30.569Z,99751.96
2018-07-06T08:24:06.172Z,99748.50
2018-07-06T08:25:41.740Z,99751.25
2018-07-06T08:27:17.331Z,99764.92
2018-07-06T08:28:52.883Z,99753.05
2018-07-06T08:30:29.188Z,99757.09
2018-07-06T08:32:04.753Z,99751.06
2018-07-06T08:33:49.022Z,99754.89
2018-07-06T08:35:35.831Z,99754.41
2018-07-06T08:37:28.046Z,99758.64
2018-07-06T08:39:03.924Z,99764.41
2018-07-06T08:40:39.488Z,99762.91
2018-07-06T08:42:15.041Z,99760.48
2018-07-06T08:43:50.597Z,99765.39
2018-07-06T08:45:26.893Z,99767.88
2018-07-06T08:47:02.473Z,99760.11
2018-07-06T08:48:38.147Z,99763.75
2018-07-06T08:50:13.694Z,99766.38
2018-07-06T08:51:49.601Z,99763.08
2018-07-06T08:53:25.142Z,99766.70
2018-07-06T08:55:00.741Z,99765.55
2018-07-06T08:56:36.660Z,99761.97
2018-07-06T08:58:12.526Z,99765.73
2018-07-06T08:59:48.768Z,99765.63
2018-07-06T09:01:24.529Z,99765.16
2018-07-06T09:03:00.120Z,99766.59
2018-07-06T09:04:36.066Z,99771.57
2018-07-06T09:06:11.913Z,99766.38
2018-07-06T09:07:47.761Z,99768.08
2018-07-06T09:09:23.379Z,99769.67
2018-07-06T09:10:58.891Z,99769.00
2018-07-06T09:12:34.473Z,99775.81
2018-07-06T09:14:10.067Z,99770.77
2018-07-06T09:15:45.672Z,99775.05
2018-07-06T09:17:22.788Z,99779.05
2018-07-06T09:18:58.423Z,99777.27
2018-07-06T09:20:33.980Z,99780.29
2018-07-06T09:22:09.663Z,99779.50
2018-07-06T09:23:45.436Z,99777.66
2018-07-06T09:25:21.263Z,99775.89
2018-07-06T09:26:56.787Z,99779.27
2018-07-06T09:28:32.507Z,99783.16
2018-07-06T09:30:08.363Z,99777.28
2018-07-06T09:31:44.039Z,99780.80
2018-07-06T09:33:19.592Z,99779.00
2018-07-06T09:34:55.729Z,99774.45
2018-07-06T09:36:31.741Z,99774.75
2018-07-06T09:38:07.311Z,99770.74
2018-07-06T09:39:43.605Z,99767.77
2018-07-06T09:41:19.183Z,99772.61
2018-07-06T09:42:54.752Z,99779.17
2018-07-06T09:44:30.378Z,99776.89
2018-07-06T09:46:06.213Z,99776.14
2018-07-06T09:47:41.776Z,99783.19
2018-07-06T09:49:17.499Z,99778.39
2018-07-06T09:50:53.106Z,99784.58
2018-07-06T09:52:28.667Z,99778.83
2018-07-06T09:54:04.230Z,99778.27
2018-07-06T09:55:39.828Z,99773.92
2018-07-06T09:57:15.406Z,99779.07
2018-07-06T09:58:51.064Z,99775.75
2018-07-06T10:00:32.055Z,99775.45
2018-07-06T10:02:07.685Z,99773.30
2018-07-06T10:03:43.232Z,99780.41
2018-07-06T10:05:18.801Z,99788.91
2018-07-06T10:06:54.626Z,99779.67
2018-07-06T10:08:30.202Z,99787.33
2018-07-06T10:10:05.802Z,99784.67
2018-07-06T10:11:41.364Z,99794.30
2018-07-06T10:13:17.016Z,99792.09
2018-07-06T10:14:52.625Z,99783.92
2018-07-06T10:16:28.159Z,99787.64
2018-07-06T10:18:03.720Z,99790.82
2018-07-06T10:19:39.622Z,99782.32
2018-07-06T10:21:15.165Z,99788.66
2018-07-06T10:22:50.740Z,99783.08
2018-07-06T10:24:26.327Z,99784.62
2018-07-06T10:26:01.869Z,99791.92
2018-07-06T10:27:46.217Z,99780.75
2018-07-06T10:29:48.369Z,99793.47
2018-07-06T10:31:34.097Z,99789.19
2018-07-06T10:33:09.841Z,99792.98
2018-07-06T10:34:45.428Z,99792.77
2018-07-06T10:36:21.182Z,99787.25
2018-07-06T10:37:56.784Z,99789.84
2018-07-06T10:39:32.379Z,99798.23
2018-07-06T10:41:07.884Z,99798.96
2018-07-06T10:42:43.455Z,99796.24
2018-07-06T10:44:19.050Z,99793.54
2018-07-06T10:45:54.599Z,99790.75
2018-07-06T10:47:30.162Z,99789.88
2018-07-06T10:49:06.112Z,99784.67
2018-07-06T10:50:41.810Z,99780.37
2018-07-06T10:52:17.862Z,99772.48
2018-07-06T10:53:53.425Z,99784.23
2018-07-06T10:55:29.038Z,99780.84
2018-07-06T10:57:04.940Z,99785.67
2018-07-06T10:58:40.517Z,99790.78
2018-07-06T11:00:16.062Z,99792.12
2018-07-06T11:01:51.676Z,99798.88
2018-07-06T11:03:27.261Z,99795.20
2018-07-06T11:05:02.904Z,99799.78
2018-07-06T11:06:38.538Z,99788.19
2018-07-06T11:08:14.134Z,99791.91
2018-07-06T11:09:49.703Z,99787.48
2018-07-06T11:11:25.279Z,99788.65
2018-07-06T11:13:00.852Z,99786.06
2018-07-06T11:14:36.442Z,99781.54
2018-07-06T11:16:11.980Z,99771.73
2018-07-06T11:17:47.633Z,99785.14
2018-07-06T11:19:23.349Z,99786.61
2018-07-06T11:20:58.946Z,99786.55
2018-07-06T11:22:34.593Z,99781.45
2018-07-06T11:24:10.725Z,99784.73
2018-07-06T11:25:46.276Z,99785.03
2018-07-06T11:27:22.080Z,99788.89
2018-07-06T11:28:57.664Z,99784.53
2018-07-06T11:30:33.264Z,99784.92
2018-07-06T11:32:08.883Z,99791.71
2018-07-06T11:33:44.384Z,99776.88
2018-07-06T11:35:20.069Z,99784.39
2018-07-06T11:36:55.670Z,99779.40
2018-07-06T11:38:31.276Z,99777.47
2018-07-06T11:40:06.852Z,99781.61
2018-07-06T11:41:42.556Z,99780.41
2018-07-06T11:43:18.382Z,99778.73
2018-07-06T11:44:54.062Z,99779.91
2018-07-06T11:46:29.837Z,99785.05
2018-07-06T11:48:05.393Z,99782.46
2018-07-06T11:49:41.475Z,99775.34
2018-07-06T11:51:17.225Z,99774.20
2018-07-06T11:52:52.807Z,99766.60
2018-07-06T11:54:28.364Z,99776.28
2018-07-06T11:56:04.032Z,99778.23
2018-07-06T11:57:39.573Z,99780.66
2018-07-06T11:59:15.253Z,99780.23
2018-07-06T12:00:50.876Z,99776.97
2018-07-06T12:02:26.507Z,99780.70
2018-07-06T12:04:02.492Z,99784.23
2018-07-06T12:05:38.365Z,99783.44
2018-07-06T12:07:14.041Z,99777.97
2018-07-06T12:08:49.606Z,99779.59
2018-07-06T12:10:25.177Z,99778.97
2018-07-06T12:12:00.705Z,99784.11
2018-07-06T12:13:36.590Z,99781.77
2018-07-06T12:15:12.493Z,99781.77
2018-07-06T12:16:48.355Z,99776.80
2018-07-06T12:18:23.961Z,99775.27
2018-07-06T12:19:59.532Z,99780.95
2018-07-06T12:21:35.551Z,99782.80
2018-07-06T12:23:11.122Z,99781.34
2018-07-06T12:24:46.725Z,99786.03
2018-07-06T12:26:22.279Z,99784.55
2018-07-06T12:27:57.829Z,99780.13
2018-07-06T12:29:33.396Z,99784.69
2018-07-06T12:31:09.016Z,99782.13
2018-07-06T12:32:45.003Z,99781.53
2018-07-06T12:34:20.556Z,99783.98
2018-07-06T12:35:56.249Z,99781.02
2018-07-06T12:37:31.844Z,99779.34
2018-07-06T12:39:07.436Z,99782.34
2018-07-06T12:40:43.262Z,99773.66
2018-07-06T12:42:19.177Z,99771.55
2018-07-06T12:43:54.748Z,99776.93
2018-07-06T12:45:30.500Z,99764.95
2018-07-06T12:47:06.115Z,99723.62
2018-07-06T12:48:41.711Z,99763.81
2018-07-06T12:50:17.518Z,99763.60
2018-07-06T12:51:56.157Z,99765.04
2018-07-06T12:53:32.014Z,99760.59
2018-07-06T12:55:07.745Z,99759.61
2018-07-06T12:56:43.706Z,99760.94
2018-07-06T12:58:19.346Z,99756.87
2018-07-06T12:59:54.846Z,99751.64
2018-07-06T13:01:30.411Z,99758.83
2018-07-06T13:03:06.007Z,99764.34
2018-07-06T13:04:41.556Z,99756.85
2018-07-06T13:06:17.154Z,99751.95
2018-07-06T13:07:52.731Z,99759.64
2018-07-06T13:09:28.275Z,99756.30
2018-07-06T13:11:03.886Z,99754.91
2018-07-06T13:12:39.485Z,99748.92
2018-07-06T13:14:15.307Z,99753.06
2018-07-06T13:15:50.972Z,99748.37
2018-07-06T13:17:26.530Z,99743.81
2018-07-06T13:19:02.089Z,99738.05
2018-07-06T13:20:37.682Z,99743.80
2018-07-06T13:22:14.067Z,99744.64
2018-07-06T13:23:50.024Z,99744.73
2018-07-06T13:25:25.644Z,99749.36
2018-07-06T13:27:01.434Z,99750.48
2018-07-06T13:28:37.010Z,99741.55
2018-07-06T13:30:12.599Z,99743.80
2018-07-06T13:31:48.167Z,99746.48
2018-07-06T13:33:23.762Z,99750.88
2018-07-06T13:34:59.329Z,99750.05
2018-07-06T13:36:34.914Z,99752.16
2018-07-06T13:38:10.468Z,99744.62
2018-07-06T13:39:46.036Z,99746.40
2018-07-06T13:41:21.631Z,99750.75
2018-07-06T13:42:57.191Z,99748.52
2018-07-06T13:44:32.749Z,99743.47
2018-07-06T13:46:08.275Z,99754.34
2018-07-06T13:47:43.858Z,99738.21
2018-07-06T13:49:19.896Z,99741.11
2018-07-06T13:50:55.440Z,99744.68
2018-07-06T13:52:31.052Z,99739.78
2018-07-06T13:54:06.813Z,99741.97
2018-07-06T13:55:42.691Z,99736.50
2018-07-06T13:57:18.250Z,99731.63
2018-07-06T13:58:54.598Z,99733.27
2018-07-06T14:00:30.385Z,99727.30
2018-07-06T14:02:06.308Z,99728.98
2018-07-06T14:03:42.121Z,99732.75
2018-07-06T14:05:17.688Z,99735.56
2018-07-06T14:06:53.594Z,99742.25
2018-07-06T14:08:29.153Z,99737.74
2018-07-06T14:10:05.246Z,99740.22
2018-07-06T14:11:41.084Z,99731.77
2018-07-06T14:13:16.611Z,99727.38
2018-07-06T14:14:52.257Z,99720.74
2018-07-06T14:16:27.861Z,99718.20
2018-07-06T14:18:03.470Z,99728.55
2018-07-06T14:19:39.127Z,99727.83
2018-07-06T14:21:14.635Z,99729.50
2018-07-06T14:22:50.364Z,99730.64
2018-07-06T14:24:26.106Z,99726.91
2018-07-06T14:26:01.728Z,99726.70
2018-07-06T14:27:37.303Z,99726.97
2018-07-06T14:29:12.890Z,99722.61
2018-07-06T14:30:48.434Z,99722.23
2018-07-06T14:32:23.984Z,99721.04
2018-07-06T14:33:59.565Z,99727.56
2018-07-06T14:35:35.096Z,99722.64
2018-07-06T14:37:10.645Z,99725.92
2018-07-06T14:38:46.233Z,99720.92
2018-07-06T14:40:21.763Z,99726.53
2018-07-06T14:41:57.339Z,99722.52
2018-07-06T14:43:32.945Z,99714.83
2018-07-06T14:45:08.506Z,99712.23
2018-07-06T14:46:44.066Z,99718.41
2018-07-06T14:48:19.666Z,99720.03
2018-07-06T14:49:55.294Z,99719.57
2018-07-06T14:51:30.871Z,99717.01
2018-07-06T14:53:06.453Z,99716.39
2018-07-06T14:54:42.028Z,99717.16
2018-07-06T14:56:17.609Z,99719.81
2018-07-06T14:57:53.584Z,99716.77
2018-07-06T14:59:29.415Z,99713.60
2018-07-06T15:01:05.007Z,99719.12
2018-07-06T15:02:40.655Z,99719.70
2018-07-06T15:04:16.254Z,99711.73
2018-07-06T15:05:51.999Z,99719.81
2018-07-06T15:07:27.594Z,99722.61
2018-07-06T15:09:03.288Z,99714.50
2018-07-06T15:10:38.815Z,99722.28
2018-07-06T15:12:14.455Z,99719.52
2018-07-06T15:13:50.013Z,99709.77
2018-07-06T15:15:25.576Z,99719.70
2018-07-06T15:17:01.124Z,99724.50
2018-07-06T15:18:36.716Z,99718.87
2018-07-06T15:20:12.361Z,99718.89
2018-07-06T15:21:47.964Z,99712.91
2018-07-06T15:23:23.548Z,99734.95
2018-07-06T15:24:59.127Z,99735.25
2018-07-06T15:26:34.795Z,99728.13
2018-07-06T15:28:10.381Z,99724.34
2018-07-06T15:29:45.930Z,99723.00
2018-07-06T15:31:21.923Z,99722.67
2018-07-06T15:32:57.454Z,99724.50
2018-07-06T15:34:33.011Z,99732.32
2018-07-06T15:36:08.607Z,99726.44
2018-07-06T15:37:44.147Z,99723.16
2018-07-06T15:39:19.847Z,99723.32
2018-07-06T15:40:55.453Z,99722.48
2018-07-06T15:42:30.946Z,99726.97
2018-07-06T15:44:06.646Z,99725.19
2018-07-06T15:45:42.206Z,99716.83
2018-07-06T15:47:17.790Z,99718.46
2018-07-06T15:48:53.492Z,99712.50
2018-07-06T15:50:29.405Z,99724.88
2018-07-06T15:52:04.983Z,99726.64
2018-07-06T15:53:40.602Z,99723.72
2018-07-06T15:55:16.138Z,99729.53
2018-07-06T15:56:51.747Z,99729.95
2018-07-06T15:58:27.370Z,99724.52
2018-07-06T16:00:02.937Z,99725.22
2018-07-06T16:01:38.510Z,99729.66
2018-07-06T16:03:14.121Z,99729.01
2018-07-06T16:04:49.710Z,99729.99
2018-07-06T16:06:25.271Z,99733.74
2018-07-06T16:08:00.851Z,99731.13
2018-07-06T16:09:36.414Z,99736.63
2018-07-06T16:11:11.962Z,99732.72
2018-07-06T16:12:47.563Z,99737.55
2018-07-06T16:14:23.150Z,99744.05
2018-07-06T16:15:58.721Z,99747.84
2018-07-06T16:17:34.391Z,99736.33
2018-07-06T16:19:09.933Z,99741.44
2018-07-06T16:20:45.537Z,99737.31
2018-07-06T16:22:21.509Z,99745.85
2018-07-06T16:23:57.089Z,99739.58
2018-07-06T16:25:32.814Z,99739.88
2018-07-06T16:27:08.377Z,99740.33
2018-07-06T16:28:43.928Z,99744.22
2018-07-06T16:30:19.753Z,99742.81
2018-07-06T16:31:55.366Z,99741.06
2018-07-06T16:33:30.943Z,99745.26
2018-07-06T16:35:06.610Z,99744.21
2018-07-06T16:36:42.199Z,99743.86
2018-07-06T16:38:17.757Z,99753.42
2018-07-06T16:39:53.327Z,99756.41
2018-07-06T16:41:28.977Z,99757.08
2018-07-06T16:43:04.560Z,99753.31
2018-07-06T16:44:40.208Z,99757.36
2018-07-06T16:46:16.212Z,99754.59
2018-07-06T16:47:51.741Z,99760.62
2018-07-06T16:49:27.291Z,99756.66
2018-07-06T16:51:03.032Z,99761.02
2018-07-06T16:52:38.900Z,99758.92
2018-07-06T16:54:14.592Z,99753.92
2018-07-06T16:55:50.358Z,99753.64
2018-07-06T16:57:25.976Z,99759.89
2018-07-06T16:59:01.516Z,99757.77
2018-07-06T17:00:37.140Z,99762.95
2018-07-06T17:02:12.732Z,99756.75
2018-07-06T17:03:48.464Z,99756.41
2018-07-06T17:05:24.044Z,99760.55
2018-07-06T17:06:59.662Z,99755.21
2018-07-06T17:08:35.199Z,99753.09
2018-07-06T17:10:11.046Z,99752.95
2018-07-06T17:11:46.844Z,99752.91
2018-07-06T17:13:22.596Z,99757.77
2018-07-06T17:14:58.194Z,99755.59
2018-07-06T17:16:33.816Z,99756.41
2018-07-06T17:18:09.562Z,99761.35
2018-07-06T17:19:45.156Z,99757.97
2018-07-06T17:21:20.679Z,99765.91
2018-07-06T17:22:56.301Z,99758.84
2018-07-06T17:24:31.857Z,99760.53
2018-07-06T17:26:07.405Z,99760.95
2018-07-06T17:27:43.094Z,99762.25
2018-07-06T17:29:18.716Z,99759.84
2018-07-06T17:30:54.276Z,99765.48
2018-07-06T17:32:29.884Z,99765.48
2018-07-06T17:34:05.474Z,99768.19
2018-07-06T17:35:41.347Z,99767.65
2018-07-06T17:37:16.946Z,99770.94
2018-07-06T17:38:52.536Z,99774.99
2018-07-06T17:40:28.104Z,99779.13
2018-07-06T17:42:03.666Z,99776.34
2018-07-06T17:43:39.228Z,99775.25
2018-07-06T17:45:14.837Z,99776.55
2018-07-06T17:46:50.708Z,99777.19
2018-07-06T17:48:26.315Z,99774.34
2018-07-06T17:50:01.854Z,99783.86
2018-07-06T17:51:37.439Z,99780.13
2018-07-06T17:53:13.043Z,99779.27
2018-07-06T17:54:48.588Z,99778.09
2018-07-06T17:56:25.880Z,99781.11
2018-07-06T17:58:01.393Z,99781.70
2018-07-06T17:59:36.985Z,99791.90
2018-07-06T18:01:12.523Z,99787.91
2018-07-06T18:02:48.133Z,99795.38
2018-07-06T18:04:23.688Z,99796.59
2018-07-06T18:05:59.290Z,99795.76
2018-07-06T18:07:35.170Z,99798.76
2018-07-06T18:09:10.817Z,99803.67
2018-07-06T18:10:46.293Z,99798.38
2018-07-06T18:12:21.847Z,99808.95
2018-07-06T18:13:57.490Z,99797.88
2018-07-06T18:15:33.396Z,99802.56
2018-07-06T18:17:08.952Z,99804.67
2018-07-06T18:18:44.564Z,99804.67
2018-07-06T18:20:20.754Z,99813.36
2018-07-06T18:21:56.514Z,99803.63
2018-07-06T18:23:32.675Z,99811.06
2018-07-06T18:25:08.586Z,99817.53
2018-07-06T18:26:44.216Z,99816.38
2018-07-06T18:28:19.979Z,99821.59
2018-07-06T18:29:55.610Z,99817.37
2018-07-06T18:31:31.216Z,99814.09
2018-07-06T18:33:06.759Z,99817.16
2018-07-06T18:34:42.295Z,99813.58
2018-07-06T18:36:17.834Z,99815.80
2018-07-06T18:37:53.443Z,99817.11
2018-07-06T18:39:29.222Z,99821.34
2018-07-06T18:41:04.773Z,99819.74
2018-07-06T18:42:40.362Z,99821.44
2018-07-06T18:44:16.102Z,99827.30
2018-07-06T18:45:51.919Z,99828.94
2018-07-06T18:47:27.460Z,99822.84
2018-07-06T18:50:52.926Z,99826.23
2018-07-06T18:52:28.530Z,99828.75
2018-07-06T18:54:04.146Z,99829.88
2018-07-06T18:55:39.719Z,99835.92
2018-07-06T18:57:15.270Z,99829.77
2018-07-06T18:58:50.835Z,99832.05
2018-07-06T19:00:26.497Z,99832.39
2018-07-06T19:03:36.656Z,99842.97
2018-07-06T19:05:12.270Z,99834.47
2018-07-06T19:06:47.852Z,99837.47
2018-07-06T19:08:23.608Z,99835.16
2018-07-06T19:09:59.257Z,99837.86
2018-07-06T19:11:35.069Z,99841.73
2018-07-06T19:13:10.673Z,99838.08
2018-07-06T19:14:46.240Z,99837.41
2018-07-06T19:16:21.821Z,99844.94
2018-07-06T19:17:57.633Z,99848.95
2018-07-06T19:19:33.172Z,99849.31
2018-07-06T19:21:08.913Z,99852.94
2018-07-06T19:22:44.483Z,99856.45
2018-07-06T19:24:20.044Z,99856.63
2018-07-06T19:25:55.972Z,99857.31
2018-07-06T19:27:31.622Z,99865.31
2018-07-06T19:29:07.207Z,99868.31